Time;durP1;ratioP1;P1;durP2;ratioP2;P2;SDS_P1;SDS_P2;PMS_P1;PMS_P2;Temp;Humidity;BMP_temperature;BMP_pressure;BME280_temperature;BME280_humidity;BME280_pressure;Samples;Min_cycle;Max_cycle;Signal;HPM_P1;HPM_P2
2023/09/18 00:01:15;;;;;;;;;;;23.60;72.00;;;;;;5064701;28;20097;-79
2023/09/18 00:03:42;;;;;;;;;;;23.60;72.10;;;;;;5074359;28;20120;-79
2023/09/18 00:06:11;;;;;;;;;;;23.60;72.20;;;;;;5065158;28;25161;-79
2023/09/18 00:08:41;;;;;;;;;;;23.60;72.00;;;;;;5069076;28;19963;-79
2023/09/18 00:11:08;;;;;;;;;;;23.50;72.00;;;;;;5069760;28;20139;-79
2023/09/18 00:13:34;;;;;;;;;;;23.50;72.20;;;;;;5069721;28;19991;-79
2023/09/18 00:16:04;;;;;;;;;;;23.50;72.20;;;;;;5045732;28;20090;-79
2023/09/18 00:18:31;;;;;;;;;;;23.50;72.20;;;;;;5064070;28;20154;-80
2023/09/18 00:20:57;;;;;;;;;;;23.50;72.20;;;;;;5046979;28;20127;-79
2023/09/18 00:23:25;;;;;;;;;;;23.40;72.30;;;;;;5069826;28;20457;-80
2023/09/18 00:25:52;;;;;;;;;;;23.40;72.30;;;;;;5069100;28;20110;-79
2023/09/18 00:28:19;;;;;;;;;;;23.40;72.40;;;;;;5049812;28;20052;-79
2023/09/18 00:30:48;;;;;;;;;;;23.40;72.50;;;;;;5068412;28;20079;-80
2023/09/18 00:33:15;;;;;;;;;;;23.40;72.50;;;;;;5064331;28;20132;-78
2023/09/18 00:35:41;;;;;;;;;;;23.40;72.50;;;;;;5068494;28;19958;-78
2023/09/18 00:38:09;;;;;;;;;;;23.30;72.50;;;;;;5039107;28;20140;-78
2023/09/18 00:40:37;;;;;;;;;;;23.30;72.70;;;;;;5069517;28;20026;-80
2023/09/18 00:43:04;;;;;;;;;;;23.30;72.70;;;;;;5046229;28;20042;-80
2023/09/18 00:45:30;;;;;;;;;;;23.30;72.80;;;;;;5066381;28;20459;-80
2023/09/18 00:47:57;;;;;;;;;;;23.20;72.80;;;;;;5053946;28;25063;-79
2023/09/18 00:50:24;;;;;;;;;;;23.20;72.80;;;;;;5069049;28;19955;-79
2023/09/18 00:52:51;;;;;;;;;;;23.20;72.80;;;;;;5082057;28;20034;-80
2023/09/18 00:55:18;;;;;;;;;;;23.20;72.90;;;;;;5072993;28;19955;-79
2023/09/18 00:57:46;;;;;;;;;;;23.20;73.00;;;;;;5067386;28;20289;-79
2023/09/18 01:00:17;;;;;;;;;;;23.20;73.00;;;;;;5068577;28;19998;-79
2023/09/18 01:02:44;;;;;;;;;;;23.10;73.00;;;;;;5053346;28;19974;-78
2023/09/18 01:05:11;;;;;;;;;;;23.10;73.10;;;;;;5062960;28;20161;-79
2023/09/18 01:07:38;;;;;;;;;;;23.10;73.00;;;;;;5064214;28;25059;-79
2023/09/18 01:10:05;;;;;;;;;;;23.10;73.10;;;;;;5040489;28;20042;-80
2023/09/18 01:12:35;;;;;;;;;;;23.10;73.20;;;;;;5042163;28;20207;-79
2023/09/18 01:15:07;;;;;;;;;;;23.10;73.20;;;;;;5063666;28;20109;-80
2023/09/18 01:17:36;;;;;;;;;;;23.10;73.20;;;;;;5065276;28;19969;-79
2023/09/18 01:20:04;;;;;;;;;;;23.00;73.30;;;;;;5041290;28;25059;-78
2023/09/18 01:22:32;;;;;;;;;;;23.00;73.30;;;;;;5059093;28;19962;-79
2023/09/18 01:24:59;;;;;;;;;;;23.00;73.30;;;;;;5066294;28;20112;-78
2023/09/18 01:27:25;;;;;;;;;;;23.00;73.40;;;;;;5048482;28;20149;-79
2023/09/18 01:29:53;;;;;;;;;;;23.00;73.40;;;;;;5070906;28;20090;-80
2023/09/18 01:32:20;;;;;;;;;;;23.00;73.50;;;;;;5063406;28;20172;-80
2023/09/18 01:34:47;;;;;;;;;;;23.00;73.60;;;;;;5044441;28;20122;-79
2023/09/18 01:37:16;;;;;;;;;;;22.90;73.50;;;;;;5038641;28;20181;-78
2023/09/18 01:39:46;;;;;;;;;;;22.90;73.60;;;;;;5067907;28;20672;-80
2023/09/18 01:42:12;;;;;;;;;;;22.90;73.70;;;;;;5057876;28;20095;-79
2023/09/18 01:44:39;;;;;;;;;;;22.90;73.80;;;;;;5063009;28;20147;-80
2023/09/18 01:47:07;;;;;;;;;;;22.90;73.80;;;;;;5050103;28;20183;-80
2023/09/18 01:49:34;;;;;;;;;;;22.90;73.90;;;;;;5045182;28;25184;-80
2023/09/18 01:52:01;;;;;;;;;;;22.90;74.00;;;;;;5064708;28;19968;-80
2023/09/18 01:54:28;;;;;;;;;;;22.80;73.90;;;;;;5050579;28;20217;-80
2023/09/18 01:56:56;;;;;;;;;;;22.90;73.90;;;;;;5065746;28;19963;-79
2023/09/18 01:59:23;;;;;;;;;;;22.90;73.80;;;;;;5064015;28;20892;-79
2023/09/18 02:01:50;;;;;;;;;;;22.80;73.60;;;;;;5065449;28;20121;-79
2023/09/18 02:04:17;;;;;;;;;;;22.80;73.40;;;;;;5068112;28;20098;-79
2023/09/18 02:06:43;;;;;;;;;;;22.80;73.30;;;;;;5065436;28;19972;-79
2023/09/18 02:09:10;;;;;;;;;;;22.80;73.40;;;;;;5047460;28;20820;-80
2023/09/18 02:11:38;;;;;;;;;;;22.80;73.30;;;;;;5065090;28;20665;-78
2023/09/18 02:14:07;;;;;;;;;;;22.80;73.40;;;;;;5065062;28;25081;-79
2023/09/18 02:16:35;;;;;;;;;;;22.80;73.40;;;;;;5047235;28;20067;-81
2023/09/18 02:19:02;;;;;;;;;;;22.80;73.40;;;;;;5066718;28;20086;-78
2023/09/18 02:21:29;;;;;;;;;;;22.80;73.50;;;;;;5049129;28;25054;-79
2023/09/18 02:23:56;;;;;;;;;;;22.80;73.30;;;;;;5067420;28;19961;-80
2023/09/18 02:26:23;;;;;;;;;;;22.70;73.20;;;;;;5073518;28;25133;-80
2023/09/18 02:28:50;;;;;;;;;;;22.70;73.00;;;;;;5062168;28;19986;-79
2023/09/18 02:31:18;;;;;;;;;;;22.70;73.00;;;;;;5077076;28;20098;-79
2023/09/18 02:33:44;;;;;;;;;;;22.70;72.90;;;;;;5068247;28;20164;-80
2023/09/18 02:36:11;;;;;;;;;;;22.70;73.10;;;;;;5069220;28;20526;-79
2023/09/18 02:38:37;;;;;;;;;;;22.70;73.80;;;;;;5069934;28;19958;-79
2023/09/18 02:41:04;;;;;;;;;;;22.70;73.20;;;;;;5064919;28;19942;-79
2023/09/18 02:43:31;;;;;;;;;;;22.70;73.30;;;;;;5062311;28;19942;-79
2023/09/18 02:45:58;;;;;;;;;;;22.70;73.20;;;;;;5067567;28;20213;-81
2023/09/18 02:48:26;;;;;;;;;;;22.70;73.20;;;;;;5067134;28;25051;-81
2023/09/18 02:50:52;;;;;;;;;;;22.70;73.20;;;;;;5075249;28;19983;-80
2023/09/18 02:53:20;;;;;;;;;;;22.70;73.30;;;;;;5068007;28;20453;-78
2023/09/18 02:55:47;;;;;;;;;;;22.70;73.30;;;;;;5068702;28;20083;-80
2023/09/18 02:58:16;;;;;;;;;;;22.70;73.30;;;;;;5061045;28;20551;-79
2023/09/18 03:00:43;;;;;;;;;;;22.60;73.20;;;;;;5058190;28;20094;-81
2023/09/18 03:03:10;;;;;;;;;;;22.70;73.20;;;;;;5063369;28;25067;-79
2023/09/18 03:05:38;;;;;;;;;;;22.70;73.20;;;;;;5056944;28;20435;-78
2023/09/18 03:08:05;;;;;;;;;;;22.70;73.10;;;;;;5059963;28;20113;-80
2023/09/18 03:10:33;;;;;;;;;;;22.60;73.10;;;;;;5061062;28;20122;-79
2023/09/18 03:13:00;;;;;;;;;;;22.60;73.10;;;;;;5063525;28;20102;-80
2023/09/18 03:15:26;;;;;;;;;;;22.60;72.90;;;;;;5064661;28;21418;-80
2023/09/18 03:17:53;;;;;;;;;;;22.60;73.00;;;;;;5062654;28;20117;-79
2023/09/18 03:20:22;;;;;;;;;;;22.60;72.90;;;;;;5060677;28;20019;-78
2023/09/18 03:22:51;;;;;;;;;;;22.60;72.90;;;;;;5058349;28;20135;-79
2023/09/18 03:25:17;;;;;;;;;;;22.60;73.00;;;;;;5061984;28;20139;-79
2023/09/18 03:27:44;;;;;;;;;;;22.60;73.10;;;;;;5062895;28;25052;-79
2023/09/18 03:30:12;;;;;;;;;;;22.60;73.20;;;;;;5064369;28;19963;-79
2023/09/18 03:32:39;;;;;;;;;;;22.60;73.20;;;;;;5055199;28;20210;-78
2023/09/18 03:35:06;;;;;;;;;;;22.60;73.40;;;;;;5047292;28;20760;-80
2023/09/18 03:37:33;;;;;;;;;;;22.60;73.40;;;;;;5063478;28;20111;-79
2023/09/18 03:40:02;;;;;;;;;;;22.60;73.50;;;;;;5062978;28;25070;-77
2023/09/18 03:42:29;;;;;;;;;;;22.60;73.60;;;;;;5042184;28;20340;-77
2023/09/18 03:44:55;;;;;;;;;;;22.60;73.80;;;;;;5065709;28;20130;-79
2023/09/18 03:47:22;;;;;;;;;;;22.60;73.90;;;;;;5065929;28;20402;-77
2023/09/18 03:49:49;;;;;;;;;;;22.60;74.00;;;;;;5043473;28;20955;-78
2023/09/18 03:52:15;;;;;;;;;;;22.50;74.10;;;;;;5064997;28;20618;-78
2023/09/18 03:54:42;;;;;;;;;;;22.60;74.20;;;;;;5061949;28;20102;-79
2023/09/18 03:57:10;;;;;;;;;;;22.50;74.30;;;;;;5046614;28;20220;-80
2023/09/18 03:59:36;;;;;;;;;;;22.50;74.30;;;;;;5061873;28;20113;-80
2023/09/18 04:02:03;;;;;;;;;;;22.50;74.40;;;;;;5062263;28;20111;-79
2023/09/18 04:04:30;;;;;;;;;;;22.50;74.50;;;;;;5070625;28;25089;-79
2023/09/18 04:06:57;;;;;;;;;;;22.50;74.60;;;;;;5047191;28;19971;-77
2023/09/18 04:09:23;;;;;;;;;;;22.50;74.70;;;;;;5064376;28;20091;-79
2023/09/18 04:11:50;;;;;;;;;;;22.50;75.00;;;;;;5062808;28;20125;-77
2023/09/18 04:14:19;;;;;;;;;;;22.50;75.30;;;;;;5064092;28;20136;-78
2023/09/18 04:16:46;;;;;;;;;;;22.50;75.70;;;;;;5045567;28;20057;-78
2023/09/18 04:19:13;;;;;;;;;;;22.50;76.10;;;;;;5047110;28;25068;-79
2023/09/18 04:21:39;;;;;;;;;;;22.50;76.50;;;;;;5063405;28;19993;-78
2023/09/18 04:24:06;;;;;;;;;;;22.50;76.90;;;;;;5066086;28;20206;-78
2023/09/18 04:26:33;;;;;;;;;;;22.40;77.20;;;;;;5068796;28;20119;-78
2023/09/18 04:29:00;;;;;;;;;;;22.40;77.60;;;;;;5058869;28;19977;-77
2023/09/18 04:31:28;;;;;;;;;;;22.40;77.80;;;;;;5076949;28;20181;-78
2023/09/18 04:33:55;;;;;;;;;;;22.40;78.10;;;;;;5067486;28;19981;-77
2023/09/18 04:36:22;;;;;;;;;;;22.40;78.40;;;;;;5065969;28;25072;-77
2023/09/18 04:38:48;;;;;;;;;;;22.40;78.70;;;;;;5063837;28;19956;-77
2023/09/18 04:41:15;;;;;;;;;;;22.30;78.70;;;;;;5064308;28;20602;-76
2023/09/18 04:43:42;;;;;;;;;;;22.30;78.80;;;;;;5067411;28;25076;-78
2023/09/18 04:46:09;;;;;;;;;;;22.30;79.00;;;;;;5067388;28;20053;-78
2023/09/18 04:48:37;;;;;;;;;;;22.30;79.10;;;;;;5064533;28;19965;-78
2023/09/18 04:51:04;;;;;;;;;;;22.30;79.20;;;;;;5065456;28;19981;-78
2023/09/18 04:53:31;;;;;;;;;;;22.30;79.30;;;;;;5067328;28;20119;-78
2023/09/18 04:55:58;;;;;;;;;;;22.30;79.40;;;;;;5063202;28;20778;-77
2023/09/18 04:58:24;;;;;;;;;;;22.20;79.50;;;;;;5062726;28;25075;-78
2023/09/18 05:00:54;;;;;;;;;;;22.30;79.70;;;;;;5062037;28;19970;-78
2023/09/18 05:03:21;;;;;;;;;;;22.20;79.90;;;;;;5041379;28;25082;-78
2023/09/18 05:05:49;;;;;;;;;;;22.20;79.80;;;;;;5061386;28;19994;-78
2023/09/18 05:08:16;;;;;;;;;;;22.20;80.00;;;;;;5044432;28;20171;-78
2023/09/18 05:10:43;;;;;;;;;;;22.20;80.00;;;;;;5061332;28;20096;-79
2023/09/18 05:13:10;;;;;;;;;;;22.10;80.20;;;;;;5062049;28;20573;-77
2023/09/18 05:15:37;;;;;;;;;;;22.10;80.30;;;;;;5064102;28;20466;-78
2023/09/18 05:18:04;;;;;;;;;;;22.10;80.40;;;;;;5056522;28;20106;-77
2023/09/18 05:20:31;;;;;;;;;;;22.10;80.50;;;;;;5044808;28;25082;-76
2023/09/18 05:23:01;;;;;;;;;;;22.00;80.60;;;;;;5059343;28;19962;-77
2023/09/18 05:25:29;;;;;;;;;;;22.00;80.70;;;;;;5067125;28;20112;-78
2023/09/18 05:27:58;;;;;;;;;;;22.00;80.90;;;;;;5059691;28;25070;-78
2023/09/18 05:30:27;;;;;;;;;;;22.00;80.90;;;;;;5059862;28;19957;-78
2023/09/18 05:32:55;;;;;;;;;;;22.00;81.10;;;;;;5057897;28;20124;-78
2023/09/18 05:35:23;;;;;;;;;;;21.90;82.60;;;;;;5063611;28;25083;-78
2023/09/18 05:37:49;;;;;;;;;;;21.70;86.10;;;;;;5079058;28;20622;-78
2023/09/18 05:40:18;;;;;;;;;;;21.60;87.10;;;;;;5059516;28;20129;-78
2023/09/18 05:42:45;;;;;;;;;;;21.50;86.60;;;;;;5044353;28;25079;-78
2023/09/18 05:45:12;;;;;;;;;;;21.50;86.20;;;;;;5074961;28;20013;-79
2023/09/18 05:47:39;;;;;;;;;;;21.50;86.20;;;;;;5059551;28;25065;-78
2023/09/18 05:50:06;;;;;;;;;;;21.50;86.10;;;;;;5066176;28;19992;-78
2023/09/18 05:52:33;;;;;;;;;;;21.50;86.10;;;;;;5046054;28;25104;-79
2023/09/18 05:55:00;;;;;;;;;;;21.50;86.10;;;;;;5052156;28;20025;-80
2023/09/18 05:57:28;;;;;;;;;;;21.50;86.00;;;;;;5065689;28;25138;-80
2023/09/18 05:59:55;;;;;;;;;;;21.50;85.90;;;;;;5073317;28;20013;-79
2023/09/18 06:02:22;;;;;;;;;;;21.50;85.80;;;;;;5057671;28;20163;-79
2023/09/18 06:04:49;;;;;;;;;;;21.50;85.80;;;;;;5067652;28;20145;-78
2023/09/18 06:07:16;;;;;;;;;;;21.50;85.60;;;;;;5068788;28;20528;-80
2023/09/18 06:09:42;;;;;;;;;;;21.60;85.60;;;;;;5064911;28;25073;-79
2023/09/18 06:12:10;;;;;;;;;;;21.50;85.60;;;;;;5062175;28;19988;-79
2023/09/18 06:14:38;;;;;;;;;;;21.50;85.60;;;;;;5061364;28;20224;-78
2023/09/18 06:17:05;;;;;;;;;;;21.50;85.60;;;;;;5063285;28;25160;-79
2023/09/18 06:19:32;;;;;;;;;;;21.50;85.60;;;;;;5043437;28;20008;-79
2023/09/18 06:21:59;;;;;;;;;;;21.50;85.60;;;;;;5064457;28;20368;-79
2023/09/18 06:24:26;;;;;;;;;;;21.50;85.60;;;;;;5060057;28;20128;-79
2023/09/18 06:26:53;;;;;;;;;;;21.50;85.70;;;;;;5060190;28;25062;-79
2023/09/18 06:29:20;;;;;;;;;;;21.50;85.70;;;;;;5060655;28;20014;-78
2023/09/18 06:31:50;;;;;;;;;;;21.50;85.70;;;;;;5060739;28;20013;-79
2023/09/18 06:34:17;;;;;;;;;;;21.50;85.70;;;;;;5062388;28;25097;-78
2023/09/18 06:36:44;;;;;;;;;;;21.40;85.50;;;;;;5038666;28;20743;-78
2023/09/18 06:39:12;;;;;;;;;;;21.50;85.80;;;;;;5054193;28;25110;-78
2023/09/18 06:41:39;;;;;;;;;;;21.40;85.70;;;;;;5058072;28;20472;-79
2023/09/18 06:44:06;;;;;;;;;;;21.50;85.80;;;;;;5057346;28;20114;-79
2023/09/18 06:46:33;;;;;;;;;;;21.40;85.80;;;;;;5040516;28;20680;-78
2023/09/18 06:49:01;;;;;;;;;;;21.40;85.80;;;;;;5082047;28;25054;-78
2023/09/18 06:51:27;;;;;;;;;;;21.40;85.90;;;;;;5061921;28;20010;-78
2023/09/18 06:53:56;;;;;;;;;;;21.40;85.90;;;;;;5033334;28;19991;-79
2023/09/18 06:56:23;;;;;;;;;;;21.40;86.00;;;;;;5066299;28;25069;-78
2023/09/18 06:58:51;;;;;;;;;;;21.40;86.00;;;;;;5069989;28;20041;-79
2023/09/18 07:01:20;;;;;;;;;;;21.40;86.10;;;;;;5061295;28;25068;-78
2023/09/18 07:03:47;;;;;;;;;;;21.30;86.10;;;;;;5064638;28;20514;-79
2023/09/18 07:06:18;;;;;;;;;;;21.30;86.20;;;;;;5048528;28;25059;-79
2023/09/18 07:08:45;;;;;;;;;;;21.40;86.30;;;;;;5067611;28;20100;-78
2023/09/18 07:11:11;;;;;;;;;;;21.40;86.40;;;;;;5068036;28;20729;-77
2023/09/18 07:13:38;;;;;;;;;;;21.30;86.50;;;;;;5049674;28;24728;-78
2023/09/18 07:16:05;;;;;;;;;;;21.30;86.60;;;;;;5067181;28;20008;-78
2023/09/18 07:18:31;;;;;;;;;;;21.30;86.70;;;;;;5049175;28;25061;-77
2023/09/18 07:20:58;;;;;;;;;;;21.30;86.80;;;;;;5064092;28;19997;-77
2023/09/18 07:23:26;;;;;;;;;;;21.30;86.70;;;;;;5061461;28;25067;-79
2023/09/18 07:25:53;;;;;;;;;;;21.30;86.80;;;;;;5068941;28;19994;-78
2023/09/18 07:28:20;;;;;;;;;;;21.30;86.90;;;;;;5063009;28;20139;-78
2023/09/18 07:30:47;;;;;;;;;;;21.30;86.90;;;;;;5045087;28;25148;-79
2023/09/18 07:33:15;;;;;;;;;;;21.20;86.80;;;;;;5063690;28;19987;-77
2023/09/18 07:35:43;;;;;;;;;;;21.20;86.90;;;;;;5062309;28;25072;-77
2023/09/18 07:38:11;;;;;;;;;;;21.30;87.00;;;;;;5055480;28;20132;-78
2023/09/18 07:40:39;;;;;;;;;;;21.20;87.10;;;;;;5058711;28;25061;-79
2023/09/18 07:43:06;;;;;;;;;;;21.20;87.10;;;;;;5053217;28;19994;-78
2023/09/18 07:45:34;;;;;;;;;;;21.20;87.10;;;;;;5039443;28;25139;-79
2023/09/18 07:48:01;;;;;;;;;;;21.20;87.10;;;;;;5057519;28;20841;-78
2023/09/18 07:50:28;;;;;;;;;;;21.20;87.10;;;;;;5052562;28;20144;-78
2023/09/18 07:52:54;;;;;;;;;;;21.20;87.10;;;;;;5022388;28;20136;-78
2023/09/18 07:55:21;;;;;;;;;;;21.20;87.10;;;;;;5053881;28;25140;-78
2023/09/18 07:57:51;;;;;;;;;;;21.20;87.00;;;;;;5044082;28;20131;-78
2023/09/18 08:00:18;;;;;;;;;;;21.20;86.90;;;;;;5062865;28;20051;-79
2023/09/18 08:02:46;;;;;;;;;;;21.20;86.90;;;;;;5039556;28;25186;-78
2023/09/18 08:05:13;;;;;;;;;;;21.20;86.80;;;;;;5066662;28;19988;-79
2023/09/18 08:07:40;;;;;;;;;;;21.20;86.80;;;;;;5072655;28;25083;-79
2023/09/18 08:10:08;;;;;;;;;;;21.20;86.70;;;;;;5044288;28;19987;-78
2023/09/18 08:12:35;;;;;;;;;;;21.20;86.70;;;;;;5064827;28;20158;-78
2023/09/18 08:15:05;;;;;;;;;;;21.10;86.70;;;;;;5060650;28;20350;-79
2023/09/18 08:17:31;;;;;;;;;;;21.10;86.60;;;;;;5063420;28;20093;-79
2023/09/18 08:19:58;;;;;;;;;;;21.10;86.40;;;;;;5058445;28;20155;-78
2023/09/18 08:22:24;;;;;;;;;;;21.10;86.40;;;;;;5061467;28;25107;-79
2023/09/18 08:24:52;;;;;;;;;;;21.10;86.30;;;;;;5057020;28;19997;-78
2023/09/18 08:27:19;;;;;;;;;;;21.10;86.30;;;;;;5056337;28;20003;-77
2023/09/18 08:29:46;;;;;;;;;;;21.10;86.40;;;;;;5061974;28;20151;-78
2023/09/18 08:32:14;;;;;;;;;;;21.10;86.40;;;;;;5061540;28;20986;-78
2023/09/18 08:34:41;;;;;;;;;;;21.20;86.40;;;;;;5058910;28;20160;-79
2023/09/18 08:37:08;;;;;;;;;;;21.10;86.40;;;;;;5059176;28;20552;-78
2023/09/18 08:39:37;;;;;;;;;;;21.10;87.20;;;;;;5054907;28;20735;-78
2023/09/18 08:42:04;;;;;;;;;;;21.10;86.40;;;;;;5054308;28;25158;-79
2023/09/18 08:44:32;;;;;;;;;;;21.10;86.40;;;;;;5061919;28;19995;-79
2023/09/18 08:46:59;;;;;;;;;;;21.10;86.40;;;;;;5044990;28;20062;-79
2023/09/18 08:49:27;;;;;;;;;;;21.10;86.50;;;;;;5065030;28;20015;-79
2023/09/18 08:51:55;;;;;;;;;;;21.10;86.40;;;;;;5056018;28;25064;-79
2023/09/18 08:54:23;;;;;;;;;;;21.10;86.50;;;;;;5060906;28;20038;-79
2023/09/18 08:56:50;;;;;;;;;;;21.10;86.50;;;;;;5043217;28;20491;-79
2023/09/18 08:59:17;;;;;;;;;;;21.10;86.50;;;;;;5059342;28;20012;-79
2023/09/18 09:01:44;;;;;;;;;;;21.00;86.50;;;;;;5039989;28;20493;-77
2023/09/18 09:04:11;;;;;;;;;;;21.10;86.70;;;;;;5036682;28;19991;-77
2023/09/18 09:06:39;;;;;;;;;;;21.10;86.70;;;;;;5037725;28;25075;-77
2023/09/18 09:09:07;;;;;;;;;;;21.00;86.60;;;;;;5036722;28;20016;-77
2023/09/18 09:11:34;;;;;;;;;;;21.10;86.60;;;;;;5036851;28;25090;-78
2023/09/18 09:14:11;;;;;;;;;;;21.00;86.60;;;;;;5036948;28;19990;-79
2023/09/18 09:16:39;;;;;;;;;;;21.00;86.60;;;;;;5050035;28;25065;-77
2023/09/18 09:19:06;;;;;;;;;;;21.10;86.70;;;;;;5048951;28;20014;-78
2023/09/18 09:21:41;;;;;;;;;;;21.10;86.60;;;;;;5036880;28;25060;-78
2023/09/18 09:24:08;;;;;;;;;;;21.00;86.60;;;;;;5038314;28;20458;-77
2023/09/18 09:26:36;;;;;;;;;;;21.00;86.50;;;;;;5020507;28;20246;-77
2023/09/18 09:29:15;;;;;;;;;;;21.00;86.50;;;;;;5052561;28;25105;-78
2023/09/18 09:31:41;;;;;;;;;;;21.10;86.50;;;;;;5031731;28;20012;-76
2023/09/18 09:34:09;;;;;;;;;;;21.10;86.60;;;;;;5034008;28;21685;-77
2023/09/18 09:36:35;;;;;;;;;;;21.00;86.40;;;;;;5034232;28;20192;-77
2023/09/18 09:39:04;;;;;;;;;;;21.10;86.50;;;;;;5034063;28;25054;-78
2023/09/18 09:41:33;;;;;;;;;;;21.00;86.40;;;;;;5036062;28;19993;-78
2023/09/18 09:44:00;;;;;;;;;;;21.10;86.60;;;;;;5038839;28;20164;-77
2023/09/18 09:46:27;;;;;;;;;;;21.00;86.60;;;;;;5036754;28;20646;-79
2023/09/18 09:49:01;;;;;;;;;;;21.10;86.60;;;;;;5019836;28;20016;-78
2023/09/18 09:51:28;;;;;;;;;;;21.00;86.50;;;;;;5018080;28;19993;-78
2023/09/18 09:53:58;;;;;;;;;;;21.10;86.60;;;;;;5036896;28;20152;-77
2023/09/18 09:56:40;;;;;;;;;;;21.00;86.60;;;;;;5039590;28;25087;-78
2023/09/18 09:59:08;;;;;;;;;;;21.00;86.60;;;;;;5037885;28;20025;-78
2023/09/18 10:01:35;;;;;;;;;;;21.10;86.60;;;;;;5038764;28;20148;-77
2023/09/18 10:04:04;;;;;;;;;;;21.10;86.70;;;;;;5017493;28;25058;-78
2023/09/18 10:06:32;;;;;;;;;;;21.00;86.60;;;;;;5034652;28;19983;-78
2023/09/18 10:08:59;;;;;;;;;;;21.00;86.50;;;;;;5035418;28;20630;-78
2023/09/18 10:11:27;;;;;;;;;;;21.00;86.40;;;;;;5036841;28;25102;-77
2023/09/18 10:13:56;;;;;;;;;;;21.00;86.40;;;;;;5036099;28;20380;-78
2023/09/18 10:16:27;;;;;;;;;;;21.10;86.40;;;;;;5037766;28;20172;-79
2023/09/18 10:18:59;;;;;;;;;;;21.00;86.30;;;;;;5034936;28;25149;-78
2023/09/18 10:21:31;;;;;;;;;;;21.10;86.50;;;;;;5036700;28;19990;-79
2023/09/18 10:24:00;;;;;;;;;;;21.10;86.50;;;;;;5034796;28;25076;-78
2023/09/18 10:26:29;;;;;;;;;;;21.10;86.40;;;;;;5033829;28;19994;-78
2023/09/18 10:28:58;;;;;;;;;;;21.10;86.40;;;;;;5051272;28;25060;-79
2023/09/18 10:31:26;;;;;;;;;;;21.10;86.40;;;;;;5046409;28;20012;-79
2023/09/18 10:33:54;;;;;;;;;;;21.10;86.40;;;;;;5054770;28;25074;-79
2023/09/18 10:36:22;;;;;;;;;;;21.10;86.40;;;;;;5051936;28;19986;-78
2023/09/18 10:38:51;;;;;;;;;;;21.10;86.30;;;;;;5055553;28;25093;-78
2023/09/18 10:41:20;;;;;;;;;;;21.10;86.30;;;;;;5060628;28;19997;-80
2023/09/18 10:43:47;;;;;;;;;;;21.10;86.20;;;;;;5040856;28;25083;-80
2023/09/18 10:46:14;;;;;;;;;;;21.10;86.20;;;;;;5071081;28;20027;-79
2023/09/18 10:48:42;;;;;;;;;;;21.10;86.10;;;;;;5058424;28;20898;-79
2023/09/18 10:51:09;;;;;;;;;;;21.10;86.00;;;;;;5054394;28;20125;-79
2023/09/18 10:53:38;;;;;;;;;;;21.10;85.80;;;;;;5077376;28;22137;-78
2023/09/18 10:56:05;;;;;;;;;;;21.10;85.80;;;;;;5063842;28;25070;-80
2023/09/18 10:58:35;;;;;;;;;;;21.10;85.70;;;;;;5057023;28;20017;-81
2023/09/18 11:01:03;;;;;;;;;;;21.10;85.30;;;;;;5060175;28;20234;-79
2023/09/18 11:03:30;;;;;;;;;;;21.10;85.10;;;;;;5043106;28;19989;-80
2023/09/18 11:06:09;;;;;;;;;;;21.10;85.00;;;;;;5055787;28;25083;-79
2023/09/18 11:08:37;;;;;;;;;;;21.10;84.90;;;;;;5054901;28;20006;-82
2023/09/18 11:11:09;;;;;;;;;;;21.10;84.80;;;;;;5038686;28;25077;-81
2023/09/18 11:13:37;;;;;;;;;;;21.20;84.70;;;;;;5048487;28;20416;-80
2023/09/18 11:16:14;;;;;;;;;;;21.20;84.50;;;;;;5064712;28;25056;-82
2023/09/18 11:18:41;;;;;;;;;;;21.20;84.30;;;;;;5066440;28;20495;-80
2023/09/18 11:21:10;;;;;;;;;;;21.20;84.30;;;;;;5066522;28;25075;-83
2023/09/18 11:23:38;;;;;;;;;;;21.20;84.10;;;;;;5067165;28;19988;-79
2023/09/18 11:26:06;;;;;;;;;;;21.20;84.00;;;;;;5065289;28;20274;-81
2023/09/18 11:28:32;;;;;;;;;;;21.20;83.90;;;;;;5042683;28;20047;-82
2023/09/18 11:31:03;;;;;;;;;;;21.30;83.80;;;;;;5064541;28;20192;-82
2023/09/18 11:33:33;;;;;;;;;;;21.30;83.70;;;;;;5069835;28;20146;-81
2023/09/18 11:36:03;;;;;;;;;;;21.30;83.70;;;;;;5064952;28;20142;-80
2023/09/18 11:38:33;;;;;;;;;;;21.30;83.50;;;;;;5065667;28;25145;-80
2023/09/18 11:41:22;;;;;;;;;;;21.30;83.40;;;;;;5074155;28;19986;-79
2023/09/18 11:43:48;;;;;;;;;;;21.30;83.30;;;;;;5083748;28;25135;-79
2023/09/18 11:46:18;;;;;;;;;;;21.30;83.10;;;;;;5055380;28;20573;-78
2023/09/18 11:48:46;;;;;;;;;;;21.40;83.00;;;;;;5075351;28;25104;-79
2023/09/18 11:51:14;;;;;;;;;;;21.30;82.80;;;;;;5071776;28;20002;-82
2023/09/18 11:53:43;;;;;;;;;;;21.40;82.80;;;;;;5055792;28;20212;-80
2023/09/18 11:56:14;;;;;;;;;;;21.40;82.70;;;;;;5050743;28;20169;-79
2023/09/18 11:58:46;;;;;;;;;;;21.40;82.60;;;;;;5070630;28;25084;-81
2023/09/18 12:01:15;;;;;;;;;;;21.50;82.50;;;;;;5055647;28;20016;-80
2023/09/18 12:03:53;;;;;;;;;;;21.50;82.20;;;;;;5063738;28;25167;-80
2023/09/18 12:06:20;;;;;;;;;;;21.70;80.10;;;;;;5045060;28;25057;-81
2023/09/18 12:08:50;;;;;;;;;;;21.90;79.70;;;;;;5065836;28;20006;-80
2023/09/18 12:11:19;;;;;;;;;;;22.10;78.40;;;;;;5059487;28;25065;-78
2023/09/18 12:13:47;;;;;;;;;;;22.30;78.60;;;;;;5067057;28;20385;-79
2023/09/18 12:16:14;;;;;;;;;;;22.40;77.30;;;;;;5065209;28;25168;-78
2023/09/18 12:18:47;;;;;;;;;;;22.60;76.80;;;;;;5068147;28;20010;-83
2023/09/18 12:21:15;;;;;;;;;;;22.70;75.90;;;;;;5064276;28;25057;-80
2023/09/18 12:23:43;;;;;;;;;;;22.70;74.70;;;;;;5067722;28;20089;-82
2023/09/18 12:26:13;;;;;;;;;;;22.80;73.20;;;;;;5064497;28;25087;-81
2023/09/18 12:28:40;;;;;;;;;;;22.80;73.20;;;;;;5068369;28;20512;-80
2023/09/18 12:31:07;;;;;;;;;;;22.80;73.90;;;;;;5070227;28;25141;-83
2023/09/18 12:33:35;;;;;;;;;;;22.80;73.60;;;;;;5072136;28;20153;-80
2023/09/18 12:36:02;;;;;;;;;;;22.90;72.60;;;;;;5050218;28;20216;-81
2023/09/18 12:38:30;;;;;;;;;;;22.80;73.00;;;;;;5074707;28;20155;-79
2023/09/18 12:41:04;;;;;;;;;;;22.70;73.60;;;;;;5068771;28;20597;-82
2023/09/18 12:43:36;;;;;;;;;;;22.60;74.40;;;;;;5072255;28;19991;-81
2023/09/18 12:46:04;;;;;;;;;;;22.50;75.40;;;;;;5075901;28;21714;-81
2023/09/18 12:48:31;;;;;;;;;;;22.40;76.30;;;;;;5068289;28;20187;-82
2023/09/18 12:51:03;;;;;;;;;;;22.30;76.20;;;;;;5051664;28;25059;-81
2023/09/18 12:53:30;;;;;;;;;;;22.30;76.60;;;;;;5075588;28;20229;-81
2023/09/18 12:56:09;;;;;;;;;;;22.20;76.50;;;;;;5071033;28;25124;-80
2023/09/18 12:58:37;;;;;;;;;;;22.20;76.80;;;;;;5070502;28;20007;-82
2023/09/18 13:01:08;;;;;;;;;;;22.20;76.90;;;;;;5061320;28;24710;-81
2023/09/18 13:03:36;;;;;;;;;;;22.30;74.00;;;;;;5062236;28;19985;-82
2023/09/18 13:06:09;;;;;;;;;;;22.40;72.50;;;;;;5069610;28;25073;-79
2023/09/18 13:08:36;;;;;;;;;;;22.50;72.20;;;;;;5063805;28;20067;-78
2023/09/18 13:11:04;;;;;;;;;;;22.50;72.60;;;;;;5064958;28;25165;-79
2023/09/18 13:13:31;;;;;;;;;;;22.60;73.70;;;;;;5064946;28;19996;-79
2023/09/18 13:16:00;;;;;;;;;;;22.50;74.20;;;;;;5069143;28;25064;-78
2023/09/18 13:18:27;;;;;;;;;;;22.50;74.60;;;;;;5067643;28;20009;-79
2023/09/18 13:20:54;;;;;;;;;;;22.40;74.60;;;;;;5069184;28;20199;-77
2023/09/18 13:23:21;;;;;;;;;;;22.40;74.70;;;;;;5059934;28;20016;-79
2023/09/18 13:25:48;;;;;;;;;;;22.40;74.80;;;;;;5051381;28;20816;-80
2023/09/18 13:28:14;;;;;;;;;;;22.40;74.90;;;;;;5066133;28;20002;-77
2023/09/18 13:30:42;;;;;;;;;;;22.40;75.40;;;;;;5045796;28;25095;-77
2023/09/18 13:33:11;;;;;;;;;;;22.50;75.50;;;;;;5074452;28;19990;-78
2023/09/18 13:35:39;;;;;;;;;;;22.50;75.50;;;;;;5066634;28;25170;-79
2023/09/18 13:38:07;;;;;;;;;;;22.50;75.40;;;;;;5063790;28;20493;-80
2023/09/18 13:40:35;;;;;;;;;;;22.50;75.50;;;;;;5036220;28;25142;-78
2023/09/18 13:43:03;;;;;;;;;;;22.50;75.30;;;;;;5045243;28;20054;-77
2023/09/18 13:45:30;;;;;;;;;;;22.60;75.50;;;;;;5043999;28;20154;-78
2023/09/18 13:47:57;;;;;;;;;;;22.60;75.10;;;;;;5064959;28;20134;-76
2023/09/18 13:50:25;;;;;;;;;;;22.60;75.30;;;;;;5060944;28;25160;-75
2023/09/18 13:53:06;;;;;;;;;;;22.60;75.30;;;;;;5066223;28;20488;-79
2023/09/18 13:55:32;;;;;;;;;;;22.70;75.10;;;;;;5064927;28;20693;-78
2023/09/18 13:57:59;;;;;;;;;;;22.60;74.80;;;;;;5063478;28;25160;-78
2023/09/18 14:00:26;;;;;;;;;;;22.60;75.00;;;;;;5061808;28;20035;-78
2023/09/18 14:02:53;;;;;;;;;;;22.70;75.20;;;;;;5063746;28;25100;-79
2023/09/18 14:05:19;;;;;;;;;;;22.70;74.50;;;;;;5062958;28;19985;-78
2023/09/18 14:07:48;;;;;;;;;;;22.70;74.60;;;;;;5075051;28;20160;-78
2023/09/18 14:10:16;;;;;;;;;;;22.70;74.90;;;;;;5062039;28;20214;-77
2023/09/18 14:12:46;;;;;;;;;;;22.80;74.80;;;;;;5061185;28;25144;-79
2023/09/18 14:15:13;;;;;;;;;;;22.80;74.60;;;;;;5062002;28;19983;-77
2023/09/18 14:17:40;;;;;;;;;;;22.80;74.60;;;;;;5064644;28;25084;-77
2023/09/18 14:20:07;;;;;;;;;;;22.80;74.70;;;;;;5047915;28;20212;-78